createdAt,value
2019-02-26T00:09:33.009Z,50.2
2019-02-26T00:19:38.885Z,50.6
2019-02-26T00:29:46.265Z,51.2
2019-02-26T00:39:56.525Z,52.2
2019-02-26T00:49:59.978Z,51.9
2019-02-26T01:00:07.655Z,52.1
2019-02-26T01:10:19.084Z,52.5
2019-02-26T01:20:31.804Z,52
2019-02-26T01:30:36.384Z,53.1
2019-02-26T01:40:45.998Z,52.9
2019-02-26T01:51:01.081Z,52.8
2019-02-26T02:01:06.769Z,52.5
2019-02-26T02:11:10.217Z,53.1
2019-02-26T02:21:13.682Z,53.4
2019-02-26T02:31:17.129Z,53.9
2019-02-26T02:41:20.610Z,54.4
2019-02-26T02:51:28.080Z,55.7
2019-02-26T03:01:39.744Z,56.3
2019-02-26T03:11:48.859Z,56.6
2019-02-26T03:21:58.247Z,57.2
2019-02-26T03:32:01.720Z,57.5
2019-02-26T03:42:05.199Z,58
2019-02-26T03:52:08.654Z,58.6
2019-02-26T04:02:17.335Z,58
2019-02-26T04:12:26.678Z,58.6
2019-02-26T04:22:30.100Z,59.2
2019-02-26T04:32:38.791Z,59
2019-02-26T04:42:49.480Z,58.7
2019-02-26T04:52:55.368Z,59.1
2019-02-26T05:03:13.625Z,59.1
2019-02-26T05:13:27.490Z,59.3
2019-02-26T05:23:37.883Z,59.5
2019-02-26T05:33:41.305Z,59.6
2019-02-26T05:43:55.194Z,59.9
2019-02-26T05:54:11.396Z,60.2
2019-02-26T06:04:24.223Z,60.1
2019-02-26T06:14:33.092Z,60.9
2019-02-26T06:24:42.746Z,60.3
2019-02-26T06:34:46.185Z,60.9
2019-02-26T06:44:51.581Z,61.1
2019-02-26T06:55:00.049Z,61.1
2019-02-26T07:05:10.520Z,61.5
2019-02-26T07:15:13.924Z,59.9
2019-02-26T07:25:18.801Z,58.8
2019-02-26T07:35:22.238Z,56.8
2019-02-26T07:45:29.626Z,54.8
2019-02-26T07:55:40.501Z,53.4
2019-02-26T08:05:45.838Z,53.2
2019-02-26T08:15:49.260Z,51.5
2019-02-26T08:25:56.956Z,50.9
2019-02-26T08:36:05.585Z,50.6
2019-02-26T08:46:13.941Z,51.2
2019-02-26T08:56:28.117Z,50.4
2019-02-26T09:06:39.074Z,48.5
2019-02-26T09:16:42.476Z,46.9
2019-02-26T09:26:49.389Z,46.6
2019-02-26T09:37:05.482Z,47.4
2019-02-26T09:47:11.448Z,46.5
2019-02-26T09:57:20.423Z,44.7
2019-02-26T10:07:38.627Z,45.4
2019-02-26T10:17:45.166Z,45.5
2019-02-26T10:27:48.732Z,46.4
2019-02-26T10:37:52.148Z,45.7
2019-02-26T10:47:59.290Z,45.8
2019-02-26T10:58:12.950Z,45.5
2019-02-26T11:08:16.764Z,46
2019-02-26T11:18:23.547Z,46.3
2019-02-26T11:28:32.919Z,48
2019-02-26T11:38:47.208Z,48.7
2019-02-26T11:48:54.990Z,47.5
2019-02-26T11:59:01.216Z,46.9
2019-02-26T12:09:10.814Z,48.4
2019-02-26T12:19:19.522Z,46.7
2019-02-26T12:29:25.919Z,47
2019-02-26T12:39:31.852Z,46.8
2019-02-26T12:49:41.450Z,46.6
2019-02-26T12:59:48.583Z,46.2
2019-02-26T13:10:00.884Z,45.9
2019-02-26T13:20:11.379Z,45.3
2019-02-26T13:30:14.820Z,45.6
2019-02-26T13:40:18.279Z,45.2
2019-02-26T13:50:22.748Z,42.2
2019-02-26T14:00:27.231Z,42.8
2019-02-26T14:10:30.699Z,40.2
2019-02-26T14:20:34.158Z,40.5
2019-02-26T14:30:37.642Z,40.1
2019-02-26T14:40:41.095Z,41.6
2019-02-26T14:50:44.536Z,41.3
2019-02-26T15:00:58.847Z,40.9
2019-02-26T15:11:03.950Z,40.6
2019-02-26T15:21:07.405Z,41.2
2019-02-26T15:31:10.850Z,40.1
2019-02-26T15:41:14.330Z,40.6
2019-02-26T15:51:20.803Z,41.1
2019-02-26T16:01:24.264Z,41.2
2019-02-26T16:11:27.729Z,41.3
2019-02-26T16:21:31.192Z,41.9
2019-02-26T16:31:34.844Z,41.2
2019-02-26T16:41:39.125Z,41.3
2019-02-26T16:51:42.577Z,41.8
2019-02-26T17:01:46.073Z,42.5
2019-02-26T17:11:49.554Z,42.8
2019-02-26T17:21:53.032Z,43.6
2019-02-26T17:31:57.119Z,44.2
2019-02-26T17:42:00.600Z,44.6
2019-02-26T17:52:04.027Z,45.1
2019-02-26T18:02:07.475Z,45.4
2019-02-26T18:12:10.911Z,46.1
2019-02-26T18:22:14.348Z,47.8
2019-02-26T18:32:17.831Z,48.8
2019-02-26T18:42:21.256Z,49.8
2019-02-26T18:52:24.659Z,50
2019-02-26T19:02:28.083Z,48.8
2019-02-26T19:12:31.502Z,48.6
2019-02-26T19:22:34.980Z,48.6
2019-02-26T19:32:38.433Z,49.6
2019-02-26T19:42:42.805Z,49.3
2019-02-26T19:52:46.224Z,48
2019-02-26T20:02:49.658Z,47.5
2019-02-26T20:12:54.284Z,47.2
2019-02-26T20:22:57.978Z,48.1
2019-02-26T20:33:04.930Z,48.1
2019-02-26T20:43:08.750Z,47.9
2019-02-26T20:53:12.512Z,48.3
2019-02-26T21:03:16.253Z,48.5
2019-02-26T21:13:20.033Z,48.5
2019-02-26T21:23:28.370Z,48.6
2019-02-26T21:33:32.192Z,49.2
2019-02-26T21:43:36.012Z,49.3
2019-02-26T21:53:40.126Z,49.4
2019-02-26T22:03:43.908Z,49.7
2019-02-26T22:13:47.651Z,50.6
2019-02-26T22:23:51.443Z,51.6
2019-02-26T22:33:55.237Z,51.5
2019-02-26T22:43:59.018Z,51.5
2019-02-26T22:54:02.813Z,51.4
2019-02-26T23:04:06.583Z,53.1
2019-02-26T23:14:10.369Z,53
2019-02-26T23:24:14.197Z,54.5
2019-02-26T23:34:22.744Z,53.9
2019-02-26T23:44:26.558Z,53.4
2019-02-26T23:54:30.378Z,53.4
